createdAt,value
2023-04-05T00:00:35.523Z,8.16
2023-04-05T00:03:03.252Z,8.17
2023-04-05T00:05:34.648Z,8.21
2023-04-05T00:08:02.380Z,8.20
2023-04-05T00:10:30.944Z,8.08
2023-04-05T00:12:58.770Z,8.12
2023-04-05T00:15:27.328Z,8.09
2023-04-05T00:17:54.981Z,8.05
2023-04-05T00:20:22.014Z,8.03
2023-04-05T00:22:50.935Z,8.01
2023-04-05T00:25:18.619Z,7.99
2023-04-05T00:27:45.943Z,7.96
2023-04-05T00:30:13.507Z,7.83
2023-04-05T00:32:40.723Z,7.91
2023-04-05T00:35:08.065Z,7.87
2023-04-05T00:37:35.020Z,7.82
2023-04-05T00:40:01.991Z,7.78
2023-04-05T00:42:30.455Z,7.70
2023-04-05T00:44:57.438Z,7.65
2023-04-05T00:47:24.988Z,7.55
2023-04-05T00:49:52.525Z,7.62
2023-04-05T00:52:23.541Z,7.57
2023-04-05T00:54:52.639Z,7.57
2023-04-05T00:57:20.254Z,7.55
2023-04-05T00:59:47.254Z,7.58
2023-04-05T01:02:52.186Z,7.66
2023-04-05T01:05:24.074Z,7.51
2023-04-05T01:07:59.359Z,7.46
2023-04-05T01:10:35.603Z,7.17
2023-04-05T01:13:03.004Z,7.45
2023-04-05T01:15:30.982Z,7.21
2023-04-05T01:17:58.169Z,7.43
2023-04-05T01:20:26.537Z,7.37
2023-04-05T01:23:20.937Z,7.37
2023-04-05T01:26:06.926Z,7.35
2023-04-05T01:28:49.020Z,7.29
2023-04-05T01:31:21.760Z,7.24
2023-04-05T01:34:19.493Z,7.18
2023-04-05T01:37:01.475Z,7.25
2023-04-05T01:39:30.055Z,7.19
2023-04-05T01:42:00.368Z,7.03
2023-04-05T01:44:27.988Z,7.15
2023-04-05T01:46:56.283Z,7.10
2023-04-05T01:49:24.499Z,7.06
2023-04-05T01:51:51.697Z,7.10
2023-04-05T01:54:18.671Z,7.09
2023-04-05T01:56:46.215Z,7.10
2023-04-05T01:59:13.311Z,7.05
2023-04-05T02:01:40.455Z,7.02
2023-04-05T02:04:07.406Z,6.94
2023-04-05T02:06:34.367Z,6.94
2023-04-05T02:09:02.245Z,6.77
2023-04-05T02:11:29.272Z,6.90
2023-04-05T02:13:58.857Z,6.86
2023-04-05T02:16:45.820Z,6.84
2023-04-05T02:19:13.404Z,6.85
2023-04-05T02:21:41.079Z,6.80
2023-04-05T02:24:08.290Z,6.47
2023-04-05T02:26:35.288Z,6.77
2023-04-05T02:29:02.224Z,6.73
2023-04-05T02:31:29.216Z,6.71
2023-04-05T02:33:56.191Z,6.64
2023-04-05T02:36:24.468Z,6.54
2023-04-05T02:38:51.405Z,6.58
2023-04-05T02:41:18.419Z,6.52
2023-04-05T02:43:45.647Z,6.47
2023-04-05T02:46:12.610Z,6.37
2023-04-05T02:48:42.136Z,6.34
2023-04-05T02:51:10.584Z,6.33
2023-04-05T02:53:40.609Z,6.26
2023-04-05T02:56:13.790Z,6.23
2023-04-05T02:58:43.846Z,6.21
2023-04-05T03:01:11.206Z,6.20
2023-04-05T03:03:40.670Z,6.05
2023-04-05T03:06:11.947Z,6.13
2023-04-05T03:08:46.670Z,6.09
2023-04-05T03:11:16.726Z,6.09
2023-04-05T03:13:47.858Z,5.95
2023-04-05T03:16:28.746Z,5.95
2023-04-05T03:18:57.294Z,5.99
2023-04-05T03:21:24.974Z,5.82
2023-04-05T03:24:00.533Z,5.94
2023-04-05T03:26:35.898Z,5.89
2023-04-05T03:29:03.591Z,5.90
2023-04-05T03:31:34.772Z,5.86
2023-04-05T03:34:05.871Z,5.92
2023-04-05T03:36:43.410Z,5.96
2023-04-05T03:39:32.230Z,5.96
2023-04-05T03:41:59.672Z,5.96
2023-04-05T03:44:26.586Z,5.85
2023-04-05T03:46:54.030Z,5.94
2023-04-05T03:49:22.823Z,5.83
2023-04-05T03:51:50.205Z,5.82
2023-04-05T03:54:18.819Z,5.78
2023-04-05T03:56:46.205Z,5.52
2023-04-05T03:59:16.388Z,5.79
2023-04-05T04:01:45.009Z,5.81
2023-04-05T04:04:13.727Z,5.93
2023-04-05T04:06:44.704Z,5.94
2023-04-05T04:09:13.557Z,5.98
2023-04-05T04:11:40.900Z,5.97
2023-04-05T04:14:08.774Z,5.97
2023-04-05T04:16:54.343Z,5.97
2023-04-05T04:19:31.570Z,6.08
2023-04-05T04:22:22.718Z,5.95
2023-04-05T04:25:11.387Z,6.16
2023-04-05T04:27:56.539Z,6.20
2023-04-05T04:30:57.519Z,6.30
2023-04-05T04:33:50.557Z,6.34
2023-04-05T04:36:36.415Z,6.41
2023-04-05T04:39:45.205Z,6.36
2023-04-05T04:42:23.981Z,6.57
2023-04-05T04:45:07.274Z,6.65
2023-04-05T04:47:48.108Z,6.71
2023-04-05T04:50:20.047Z,6.71
2023-04-05T04:52:47.450Z,6.76
2023-04-05T04:55:14.526Z,6.88
2023-04-05T04:57:42.957Z,6.96
2023-04-05T05:00:13.585Z,7.06
2023-04-05T05:02:42.358Z,7.12
2023-04-05T05:05:10.000Z,7.16
2023-04-05T05:07:41.084Z,7.17
2023-04-05T05:10:09.534Z,7.12
2023-04-05T05:12:37.332Z,6.99
2023-04-05T05:15:04.649Z,7.15
2023-04-05T05:17:32.557Z,7.18
2023-04-05T05:20:00.506Z,6.77
2023-04-05T05:22:28.401Z,7.16
2023-04-05T05:24:55.374Z,7.23
2023-04-05T05:27:23.072Z,7.39
2023-04-05T05:29:50.027Z,7.52
2023-04-05T05:32:17.155Z,7.71
2023-04-05T05:34:45.240Z,7.97
2023-04-05T05:37:16.801Z,8.23
2023-04-05T05:39:46.537Z,8.54
2023-04-05T05:42:13.531Z,8.72
2023-04-05T05:44:40.732Z,8.83
2023-04-05T05:47:07.738Z,8.98
2023-04-05T05:49:34.766Z,9.11
2023-04-05T05:52:01.834Z,9.16
2023-04-05T05:54:28.842Z,9.21
2023-04-05T05:56:55.865Z,9.37
2023-04-05T05:59:23.077Z,9.75
2023-04-05T06:01:51.279Z,10.07
2023-04-05T06:04:19.394Z,10.46
2023-04-05T06:06:47.936Z,10.89
2023-04-05T06:09:15.948Z,11.48
2023-04-05T06:11:53.127Z,11.98
2023-04-05T06:14:24.474Z,12.45
2023-04-05T06:16:51.459Z,12.78
2023-04-05T06:19:18.541Z,13.06
2023-04-05T06:21:45.559Z,13.30
2023-04-05T06:24:12.662Z,13.86
2023-04-05T06:26:39.711Z,14.03
2023-04-05T06:29:06.805Z,13.64
2023-04-05T06:31:35.835Z,13.69
2023-04-05T06:34:03.157Z,13.53
2023-04-05T06:36:32.130Z,13.41
2023-04-05T06:38:59.660Z,13.41
2023-04-05T06:41:27.897Z,13.67
2023-04-05T06:43:56.625Z,13.56
2023-04-05T06:46:24.799Z,13.13
2023-04-05T06:48:52.803Z,12.91
2023-04-05T06:51:20.233Z,13.00
2023-04-05T06:53:47.227Z,13.60
2023-04-05T06:56:14.229Z,14.10
2023-04-05T06:58:41.480Z,14.61
2023-04-05T07:01:08.556Z,15.08
2023-04-05T07:03:35.676Z,15.41
2023-04-05T07:06:03.079Z,15.85
2023-04-05T07:08:32.929Z,16.17
2023-04-05T07:10:59.888Z,16.49
2023-04-05T07:13:26.944Z,16.34
2023-04-05T07:16:01.227Z,16.65
2023-04-05T07:18:30.090Z,16.50
2023-04-05T07:21:02.160Z,16.48
2023-04-05T07:23:29.955Z,16.47
2023-04-05T07:26:05.278Z,16.67
2023-04-05T07:28:33.940Z,17.09
2023-04-05T07:31:01.726Z,17.23
2023-04-05T07:33:28.790Z,17.59
2023-04-05T07:35:57.233Z,17.73
2023-04-05T07:38:25.059Z,17.74
2023-04-05T07:40:52.113Z,18.33
2023-04-05T07:43:19.676Z,19.07
2023-04-05T07:45:46.808Z,19.43
2023-04-05T07:48:13.812Z,19.68
2023-04-05T07:50:41.415Z,19.74
2023-04-05T07:53:08.504Z,19.14
2023-04-05T07:55:38.200Z,18.65
2023-04-05T07:58:05.185Z,18.90
2023-04-05T08:00:32.331Z,18.97
2023-04-05T08:03:02.242Z,19.05
2023-04-05T08:05:29.727Z,18.82
2023-04-05T08:07:58.415Z,18.82
2023-04-05T08:10:25.918Z,18.73
2023-04-05T08:12:53.543Z,18.50
2023-04-05T08:15:20.500Z,18.40
2023-04-05T08:17:47.587Z,18.28
2023-04-05T08:20:14.611Z,18.29
2023-04-05T08:22:41.657Z,17.86
2023-04-05T08:25:09.379Z,17.65
2023-04-05T08:27:36.493Z,17.60
2023-04-05T08:30:04.293Z,17.57
2023-04-05T08:32:33.127Z,17.44
2023-04-05T08:35:00.455Z,17.54
2023-04-05T08:37:28.088Z,17.53
2023-04-05T08:39:55.377Z,17.70
2023-04-05T08:42:36.823Z,17.63
2023-04-05T08:45:04.996Z,17.31
2023-04-05T08:47:35.757Z,17.41
2023-04-05T08:50:04.003Z,17.75
2023-04-05T08:52:38.061Z,18.08
2023-04-05T08:55:06.645Z,18.44
2023-04-05T08:57:37.479Z,18.84
2023-04-05T09:00:05.464Z,19.39
2023-04-05T09:02:33.680Z,19.87
2023-04-05T09:05:02.717Z,20.21
2023-04-05T09:07:31.424Z,20.93
2023-04-05T09:12:28.448Z,21.47
2023-04-05T09:14:56.279Z,21.69
2023-04-05T09:17:23.328Z,21.35
2023-04-05T09:19:50.620Z,20.90
2023-04-05T09:22:20.696Z,20.37
2023-04-05T09:24:47.837Z,19.96
2023-04-05T09:27:20.563Z,19.57
2023-04-05T09:29:59.831Z,19.14
2023-04-05T09:32:29.500Z,18.81
2023-04-05T09:35:01.317Z,18.63
2023-04-05T09:37:31.379Z,18.20
2023-04-05T09:40:07.010Z,17.70
2023-04-05T09:42:47.719Z,17.38
2023-04-05T09:45:20.783Z,17.60
2023-04-05T09:47:58.545Z,17.75
2023-04-05T09:50:26.002Z,17.89
2023-04-05T09:53:16.239Z,18.08
2023-04-05T09:55:44.005Z,18.09
2023-04-05T09:58:19.603Z,18.19
2023-04-05T10:01:00.018Z,18.18
2023-04-05T10:03:46.459Z,18.55
2023-04-05T10:06:14.537Z,18.62
2023-04-05T10:08:41.571Z,18.45
2023-04-05T10:11:09.204Z,18.42
2023-04-05T10:13:38.759Z,18.38
2023-04-05T10:16:10.444Z,18.51
2023-04-05T10:18:51.430Z,18.55
2023-04-05T10:21:23.920Z,19.10
2023-04-05T10:24:01.567Z,19.30
2023-04-05T10:26:40.562Z,19.57
2023-04-05T10:29:13.432Z,19.53
2023-04-05T10:32:29.516Z,19.17
2023-04-05T10:35:11.333Z,19.13
2023-04-05T10:37:44.002Z,18.89
2023-04-05T10:40:13.127Z,18.43
2023-04-05T10:42:46.660Z,18.16
2023-04-05T10:45:18.147Z,18.37
2023-04-05T10:47:59.268Z,18.48
2023-04-05T10:50:26.470Z,18.31
2023-04-05T10:52:53.813Z,18.45
2023-04-05T10:55:22.051Z,18.24
2023-04-05T10:57:50.769Z,18.23
2023-04-05T11:00:19.016Z,17.98
2023-04-05T11:02:47.691Z,17.75
2023-04-05T11:05:31.695Z,17.66
2023-04-05T11:08:08.878Z,17.79
2023-04-05T11:10:37.761Z,17.76
2023-04-05T11:13:06.888Z,17.70
2023-04-05T11:15:35.251Z,17.82
2023-04-05T11:18:09.633Z,17.89
2023-04-05T11:21:10.879Z,17.94
2023-04-05T11:24:09.778Z,18.08
2023-04-05T11:26:49.066Z,17.99
2023-04-05T11:29:16.313Z,17.95
2023-04-05T11:32:11.675Z,17.97
2023-04-05T11:34:41.708Z,17.82
2023-04-05T11:37:08.714Z,17.64
2023-04-05T11:39:37.462Z,17.32
2023-04-05T11:42:12.424Z,17.18
2023-04-05T11:44:43.558Z,17.00
2023-04-05T11:47:11.749Z,17.02
2023-04-05T11:49:40.226Z,17.06
2023-04-05T11:52:15.666Z,17.00
2023-04-05T11:54:46.875Z,16.49
2023-04-05T11:57:22.603Z,16.87
2023-04-05T11:59:52.268Z,16.59
2023-04-05T12:02:20.504Z,16.46
2023-04-05T12:04:57.740Z,16.35
2023-04-05T12:07:29.547Z,16.26
2023-04-05T12:10:01.195Z,16.14
2023-04-05T12:12:33.434Z,15.85
2023-04-05T12:15:02.253Z,15.77
2023-04-05T12:17:40.680Z,15.72
2023-04-05T12:20:08.774Z,15.73
2023-04-05T12:22:38.189Z,15.78
2023-04-05T12:25:06.046Z,15.44
2023-04-05T12:27:33.238Z,15.69
2023-04-05T12:30:07.159Z,15.74
2023-04-05T12:32:59.052Z,15.63
2023-04-05T12:35:34.930Z,15.73
2023-04-05T12:38:03.769Z,15.73
2023-04-05T12:40:32.964Z,15.69
2023-04-05T12:43:08.971Z,15.81
2023-04-05T12:45:43.820Z,15.92
2023-04-05T12:48:19.915Z,16.02
2023-04-05T12:50:48.747Z,15.99
2023-04-05T12:53:21.145Z,15.85
2023-04-05T12:55:50.912Z,15.87
2023-04-05T12:58:19.494Z,15.56
2023-04-05T13:00:47.093Z,15.54
2023-04-05T13:03:21.228Z,15.48
2023-04-05T13:05:51.711Z,15.50
2023-04-05T13:08:19.242Z,15.51
2023-04-05T13:10:47.574Z,15.57
2023-04-05T13:13:17.944Z,15.56
2023-04-05T13:15:52.060Z,15.46
2023-04-05T13:18:20.800Z,15.47
2023-04-05T13:20:48.003Z,15.28
2023-04-05T13:23:15.054Z,15.33
2023-04-05T13:25:43.765Z,15.27
2023-04-05T13:28:11.158Z,15.18
2023-04-05T13:30:38.257Z,15.05
2023-04-05T13:33:05.432Z,14.98
2023-04-05T13:35:33.144Z,14.85
2023-04-05T13:38:04.260Z,14.80
2023-04-05T13:40:32.577Z,14.70
2023-04-05T13:42:59.836Z,14.67
2023-04-05T13:45:28.155Z,14.75
2023-04-05T13:47:55.800Z,14.67
2023-04-05T13:50:23.048Z,14.75
2023-04-05T13:52:50.048Z,14.65
2023-04-05T13:55:17.251Z,14.41
2023-04-05T13:57:44.393Z,14.41
2023-04-05T14:00:12.083Z,14.27
2023-04-05T14:02:39.869Z,14.29
2023-04-05T14:05:07.934Z,14.18
2023-04-05T14:07:35.791Z,14.28
2023-04-05T14:10:02.845Z,14.24
2023-04-05T14:12:31.802Z,13.87
2023-04-05T14:15:00.350Z,14.11
2023-04-05T14:17:28.278Z,13.45
2023-04-05T14:19:55.508Z,13.98
2023-04-05T14:22:22.697Z,13.96
2023-04-05T14:24:49.803Z,13.84
2023-04-05T14:27:16.971Z,13.73
2023-04-05T14:29:45.892Z,13.44
2023-04-05T14:32:13.071Z,13.62
2023-04-05T14:34:40.334Z,13.44
2023-04-05T14:37:08.098Z,13.55
2023-04-05T14:39:35.225Z,13.43
2023-04-05T14:42:02.550Z,13.35
2023-04-05T14:44:29.553Z,13.23
2023-04-05T14:46:56.702Z,13.28
2023-04-05T14:49:23.813Z,13.21
2023-04-05T14:51:51.135Z,13.19
2023-04-05T14:54:18.603Z,13.13
2023-04-05T14:56:45.638Z,12.96
2023-04-05T14:59:12.754Z,12.84
2023-04-05T15:01:41.916Z,12.94
2023-04-05T15:04:09.428Z,12.77
2023-04-05T15:06:36.591Z,12.82
2023-04-05T15:09:03.983Z,12.79
2023-04-05T15:11:34.294Z,12.73
2023-04-05T15:14:01.559Z,12.69
2023-04-05T15:16:30.369Z,12.57
2023-04-05T15:18:59.187Z,12.69
2023-04-05T15:21:26.316Z,12.63
2023-04-05T15:23:53.362Z,12.68
2023-04-05T15:26:21.080Z,12.60
2023-04-05T15:28:48.156Z,12.56
2023-04-05T15:31:15.150Z,12.53
2023-04-05T15:33:42.199Z,12.56
2023-04-05T15:36:09.352Z,12.51
2023-04-05T15:38:36.569Z,12.53
2023-04-05T15:41:03.790Z,12.41
2023-04-05T15:43:32.632Z,12.35
2023-04-05T15:45:59.676Z,12.37
2023-04-05T15:48:26.706Z,12.35
2023-04-05T15:50:53.709Z,12.34
2023-04-05T15:53:20.763Z,12.18
2023-04-05T15:55:47.855Z,12.13
2023-04-05T15:58:14.902Z,12.17
2023-04-05T16:00:41.973Z,12.14
2023-04-05T16:03:09.093Z,12.00
2023-04-05T16:05:36.473Z,12.07
2023-04-05T16:08:03.476Z,12.03
2023-04-05T16:10:30.682Z,11.99
2023-04-05T16:12:57.799Z,11.92
2023-04-05T16:15:24.906Z,11.83
2023-04-05T16:17:52.018Z,11.63
2023-04-05T16:20:19.134Z,11.68
2023-04-05T16:22:46.247Z,11.44
2023-04-05T16:25:13.335Z,11.75
2023-04-05T16:27:40.543Z,11.69
2023-04-05T16:30:08.389Z,11.58
2023-04-05T16:32:35.437Z,11.62
2023-04-05T16:35:02.507Z,11.48
2023-04-05T16:37:29.922Z,11.52
2023-04-05T16:39:56.904Z,11.48
2023-04-05T16:42:23.949Z,11.32
2023-04-05T16:44:51.194Z,11.38
2023-04-05T16:47:18.174Z,11.35
2023-04-05T16:49:45.362Z,11.36
2023-04-05T16:52:12.346Z,11.35
2023-04-05T16:54:39.397Z,11.29
2023-04-05T16:57:06.521Z,11.29
2023-04-05T16:59:33.662Z,11.34
2023-04-05T17:02:01.039Z,11.25
2023-04-05T17:04:28.063Z,11.28
2023-04-05T17:06:55.088Z,11.21
2023-04-05T17:09:23.199Z,11.27
2023-04-05T17:11:50.265Z,11.24
2023-04-05T17:14:17.254Z,11.23
2023-04-05T17:16:44.424Z,11.16
2023-04-05T17:19:11.491Z,11.15
2023-04-05T17:21:38.578Z,11.17
2023-04-05T17:24:05.946Z,11.19
2023-04-05T17:26:33.033Z,11.16
2023-04-05T17:29:00.116Z,11.02
2023-04-05T17:31:27.306Z,11.08
2023-04-05T17:33:54.513Z,10.94
2023-04-05T17:36:21.653Z,11.05
2023-04-05T17:38:48.648Z,11.03
2023-04-05T17:41:15.756Z,10.91
2023-04-05T17:43:42.821Z,10.90
2023-04-05T17:46:13.820Z,10.95
2023-04-05T17:48:41.980Z,10.94
2023-04-05T17:51:09.647Z,10.91
2023-04-05T17:53:36.675Z,10.86
2023-04-05T17:56:03.860Z,10.79
2023-04-05T17:58:32.455Z,10.81
2023-04-05T18:01:00.321Z,10.33
2023-04-05T18:03:27.922Z,10.64
2023-04-05T18:05:55.930Z,10.66
2023-04-05T18:08:24.386Z,10.64
2023-04-05T18:11:00.810Z,10.61
2023-04-05T18:13:28.564Z,10.55
2023-04-05T18:16:00.047Z,10.50
2023-04-05T18:18:27.670Z,10.29
2023-04-05T18:20:56.158Z,10.38
2023-04-05T18:23:25.052Z,10.34
2023-04-05T18:25:53.548Z,10.21
2023-04-05T18:28:23.464Z,10.32
2023-04-05T18:30:52.914Z,10.24
2023-04-05T18:33:22.440Z,10.17
2023-04-05T18:35:50.587Z,10.19
2023-04-05T18:38:17.878Z,10.17
2023-04-05T18:40:45.014Z,10.11
2023-04-05T18:43:12.125Z,10.05
2023-04-05T18:45:39.513Z,10.00
2023-04-05T18:48:06.804Z,9.97
2023-04-05T18:50:35.153Z,9.75
2023-04-05T18:53:02.616Z,9.93
2023-04-05T18:55:29.579Z,9.86
2023-04-05T18:57:56.988Z,9.78
2023-04-05T19:00:24.147Z,9.65
2023-04-05T19:02:51.491Z,9.76
2023-04-05T19:05:18.591Z,9.73
2023-04-05T19:07:45.678Z,9.53
2023-04-05T19:10:12.767Z,9.63
2023-04-05T19:12:39.855Z,9.58
2023-04-05T19:15:07.679Z,9.52
2023-04-05T19:17:34.791Z,9.44
2023-04-05T19:20:01.825Z,9.41
2023-04-05T19:22:29.011Z,9.39
2023-04-05T19:24:56.111Z,9.25
2023-04-05T19:27:23.229Z,9.23
2023-04-05T19:29:50.479Z,9.21
2023-04-05T19:32:17.520Z,9.25
2023-04-05T19:34:44.599Z,9.23
2023-04-05T19:37:11.708Z,9.20
2023-04-05T19:39:38.712Z,9.17
2023-04-05T19:42:06.526Z,9.13
2023-04-05T19:44:54.845Z,9.11
2023-04-05T19:47:22.414Z,8.83
2023-04-05T19:49:51.370Z,8.97
2023-04-05T19:52:45.539Z,8.97
2023-04-05T19:55:31.318Z,8.88
2023-04-05T19:58:03.281Z,8.75
2023-04-05T20:00:42.290Z,8.77
2023-04-05T20:03:24.886Z,8.75
2023-04-05T20:06:12.958Z,8.71
2023-04-05T20:08:45.625Z,8.58
2023-04-05T20:11:14.016Z,8.58
2023-04-05T20:13:47.981Z,8.55
2023-04-05T20:16:16.584Z,8.55
2023-04-05T20:18:48.647Z,8.55
2023-04-05T20:21:16.781Z,8.54
2023-04-05T20:23:44.707Z,8.49
2023-04-05T20:26:15.683Z,8.40
2023-04-05T20:28:55.493Z,8.44
2023-04-05T20:31:29.195Z,8.41
2023-04-05T20:34:15.227Z,8.40
2023-04-05T20:36:47.785Z,8.33
2023-04-05T20:39:14.972Z,8.27
2023-04-05T20:41:42.887Z,8.18
2023-04-05T20:44:10.168Z,8.31
2023-04-05T20:46:37.563Z,8.27
2023-04-05T20:49:04.739Z,8.32
2023-04-05T20:51:31.964Z,8.35
2023-04-05T20:53:58.952Z,8.26
2023-04-05T20:56:26.032Z,8.11
2023-04-05T20:58:55.006Z,8.13
2023-04-05T21:01:22.178Z,8.10
2023-04-05T21:03:49.182Z,8.07
2023-04-05T21:06:16.652Z,8.05
2023-04-05T21:08:43.711Z,7.97
2023-04-05T21:11:13.556Z,7.95
2023-04-05T21:13:41.571Z,7.54
2023-04-05T21:16:08.652Z,7.74
2023-04-05T21:18:36.569Z,7.87
2023-04-05T21:21:04.378Z,7.80
2023-04-05T21:23:33.502Z,7.80
2023-04-05T21:26:01.704Z,7.62
2023-04-05T21:28:28.698Z,7.76
2023-04-05T21:30:55.747Z,7.70
2023-04-05T21:33:22.932Z,7.65
2023-04-05T21:35:50.968Z,7.70
2023-04-05T21:38:18.577Z,7.47
2023-04-05T21:40:47.254Z,7.61
2023-04-05T21:43:14.229Z,7.57
2023-04-05T21:45:41.236Z,7.47
2023-04-05T21:48:08.402Z,7.45
2023-04-05T21:50:35.739Z,7.48
2023-04-05T21:53:02.860Z,7.46
2023-04-05T21:55:29.855Z,7.35
2023-04-05T21:57:56.848Z,7.43
2023-04-05T22:00:24.072Z,7.27
2023-04-05T22:02:51.266Z,7.25
2023-04-05T22:07:48.356Z,6.92
2023-04-05T22:10:15.499Z,7.34
2023-04-05T22:12:42.490Z,7.33
2023-04-05T22:15:10.231Z,7.28
2023-04-05T22:17:37.313Z,7.24
2023-04-05T22:20:04.765Z,7.23
2023-04-05T22:22:31.968Z,6.99
2023-04-05T22:24:59.048Z,7.18
2023-04-05T22:27:28.288Z,7.10
2023-04-05T22:29:56.684Z,7.13
2023-04-05T22:32:23.836Z,7.12
2023-04-05T22:34:53.631Z,7.06
2023-04-05T22:37:20.641Z,7.08
2023-04-05T22:39:47.699Z,7.07
2023-04-05T22:42:14.659Z,6.77
2023-04-05T22:44:41.663Z,7.05
2023-04-05T22:47:08.644Z,6.93
2023-04-05T22:49:35.631Z,6.86
2023-04-05T22:52:02.669Z,6.96
2023-04-05T22:54:29.756Z,6.97
2023-04-05T22:56:56.883Z,7.04
2023-04-05T22:59:23.969Z,7.01
2023-04-05T23:01:51.483Z,6.85
2023-04-05T23:04:19.011Z,7.01
2023-04-05T23:06:46.053Z,6.98
2023-04-05T23:09:14.776Z,6.91
2023-04-05T23:11:41.884Z,7.00
2023-04-05T23:14:09.182Z,6.69
2023-04-05T23:16:36.413Z,6.67
2023-04-05T23:19:03.891Z,6.73
2023-04-05T23:21:31.322Z,6.89
2023-04-05T23:23:58.319Z,6.81
2023-04-05T23:26:27.497Z,6.77
2023-04-05T23:28:54.614Z,6.72
2023-04-05T23:31:21.632Z,6.77
2023-04-05T23:33:48.615Z,6.66
2023-04-05T23:36:15.732Z,6.60
2023-04-05T23:38:44.973Z,6.67
2023-04-05T23:41:13.189Z,6.63
2023-04-05T23:43:40.433Z,6.68
2023-04-05T23:46:07.977Z,6.61
2023-04-05T23:48:35.113Z,6.66
2023-04-05T23:51:02.225Z,6.56
2023-04-05T23:53:29.215Z,6.49
2023-04-05T23:55:57.046Z,6.54
2023-04-05T23:58:24.253Z,6.41
